Time;durP1;ratioP1;P1;durP2;ratioP2;P2;SDS_P1;SDS_P2;PMS_P1;PMS_P2;Temp;Humidity;BMP_temperature;BMP_pressure;BME280_temperature;BME280_humidity;BME280_pressure;Samples;Min_cycle;Max_cycle;Signal;HPM_P1;HPM_P2
2021/04/10 00:02:07;;;;;;;6.03;3.45;;;23.00;26.90;;;;;;6196676;27;80899;-66
2021/04/10 00:05:07;;;;;;;3.67;2.65;;;23.10;27.00;;;;;;6197794;27;80533;-66
2021/04/10 00:08:08;;;;;;;4.10;2.58;;;23.10;26.70;;;;;;6200931;28;83328;-65
2021/04/10 00:11:08;;;;;;;6.20;2.95;;;23.10;26.90;;;;;;6199082;28;80506;-66
2021/04/10 00:14:09;;;;;;;4.50;2.92;;;23.00;26.80;;;;;;6196204;28;80938;-65
2021/04/10 00:17:09;;;;;;;6.13;3.25;;;23.00;26.60;;;;;;6194151;28;80790;-65
2021/04/10 00:20:10;;;;;;;5.60;3.28;;;23.10;26.60;;;;;;6210327;28;80848;-65
2021/04/10 00:23:10;;;;;;;4.75;2.97;;;23.10;26.60;;;;;;6212783;28;80908;-65
2021/04/10 00:26:11;;;;;;;6.63;3.30;;;23.10;26.60;;;;;;6200781;28;81360;-66
2021/04/10 00:29:11;;;;;;;5.53;3.03;;;23.00;26.40;;;;;;6217085;28;80993;-66
2021/04/10 00:32:12;;;;;;;4.43;2.90;;;23.00;26.70;;;;;;6193723;27;80742;-66
2021/04/10 00:35:12;;;;;;;7.32;3.83;;;23.00;26.80;;;;;;6198312;28;81693;-66
2021/04/10 00:38:12;;;;;;;4.10;2.83;;;23.00;26.70;;;;;;6194548;27;83022;-66
2021/04/10 00:41:13;;;;;;;4.88;3.15;;;23.00;26.50;;;;;;6226193;27;84069;-66
2021/04/10 00:44:14;;;;;;;4.60;3.08;;;23.00;27.00;;;;;;6201455;27;81528;-67
2021/04/10 00:47:14;;;;;;;4.03;2.78;;;23.00;26.80;;;;;;6189204;27;80663;-67
2021/04/10 00:50:15;;;;;;;5.95;3.10;;;23.00;26.70;;;;;;6186639;28;80894;-66
2021/04/10 00:53:15;;;;;;;8.05;2.67;;;23.00;27.10;;;;;;6198723;28;80470;-65
2021/04/10 00:56:16;;;;;;;5.68;2.92;;;23.00;26.80;;;;;;6206079;27;82883;-67
2021/04/10 00:59:16;;;;;;;4.50;2.83;;;23.00;27.10;;;;;;6219739;28;83219;-65
2021/04/10 01:02:17;;;;;;;3.72;2.70;;;23.00;26.90;;;;;;6195121;28;81699;-66
2021/04/10 01:05:17;;;;;;;4.22;2.70;;;23.00;27.40;;;;;;6205407;28;81736;-65
2021/04/10 01:08:19;;;;;;;4.78;3.00;;;23.00;27.10;;;;;;6186691;28;82487;-65
2021/04/10 01:11:19;;;;;;;4.07;2.75;;;23.00;27.00;;;;;;6214446;28;82540;-65
2021/04/10 01:14:20;;;;;;;3.97;2.40;;;23.00;27.00;;;;;;6218414;28;80703;-66
2021/04/10 01:17:21;;;;;;;4.95;2.60;;;23.00;26.90;;;;;;6198008;27;80344;-67
2021/04/10 01:20:21;;;;;;;4.15;2.70;;;23.00;27.20;;;;;;6226992;27;83026;-67
2021/04/10 01:23:22;;;;;;;4.18;2.83;;;23.00;27.10;;;;;;6220518;27;80585;-67
2021/04/10 01:26:23;;;;;;;10.38;3.45;;;23.00;26.90;;;;;;6219927;27;83500;-68
2021/04/10 01:29:24;;;;;;;4.25;2.72;;;23.00;27.20;;;;;;6200843;28;83215;-69
2021/04/10 01:32:24;;;;;;;5.65;2.88;;;23.00;27.10;;;;;;6198586;28;81170;-69
2021/04/10 01:35:25;;;;;;;3.05;2.70;;;23.00;27.10;;;;;;6199733;28;82659;-68
2021/04/10 01:38:26;;;;;;;4.47;2.58;;;23.00;27.50;;;;;;6203243;28;80763;-68
2021/04/10 01:41:27;;;;;;;3.88;2.85;;;23.00;27.30;;;;;;6193632;27;83460;-68
2021/04/10 01:44:28;;;;;;;3.10;2.63;;;23.00;27.40;;;;;;6196112;28;81287;-68
2021/04/10 01:47:29;;;;;;;3.85;3.00;;;23.00;27.00;;;;;;6188175;28;83333;-69
2021/04/10 01:50:31;;;;;;;4.70;2.90;;;23.00;26.80;;;;;;6200695;28;81519;-68
2021/04/10 01:53:31;;;;;;;4.70;2.58;;;23.00;26.90;;;;;;6218275;28;82285;-68
2021/04/10 01:56:33;;;;;;;4.90;2.55;;;23.00;27.20;;;;;;6196647;28;83628;-68
2021/04/10 01:59:37;;;;;;;4.68;2.92;;;23.00;27.30;;;;;;6197718;28;83181;-68
2021/04/10 02:02:40;;;;;;;5.60;2.42;;;23.00;27.10;;;;;;6201684;28;81311;-67
2021/04/10 02:05:41;;;;;;;6.18;2.90;;;23.00;26.70;;;;;;6206925;28;82773;-68
2021/04/10 02:08:53;;;;;;;4.45;2.85;;;22.90;26.90;;;;;;6225347;28;82346;-66
2021/04/10 02:12:05;;;;;;;4.38;2.75;;;22.90;27.00;;;;;;6220631;28;80515;-65
2021/04/10 02:15:17;;;;;;;3.92;2.33;;;22.90;26.80;;;;;;6204435;28;83575;-65
2021/04/10 02:18:18;;;;;;;4.97;3.05;;;23.00;26.80;;;;;;6198895;28;82343;-65
2021/04/10 02:21:25;;;;;;;3.10;2.40;;;23.00;27.10;;;;;;6212471;28;84075;-65
2021/04/10 02:24:26;;;;;;;5.10;2.90;;;22.90;26.70;;;;;;6209367;28;82039;-65
2021/04/10 02:27:35;;;;;;;5.25;2.63;;;22.90;26.70;;;;;;6204653;27;80848;-65
2021/04/10 02:30:39;;;;;;;4.20;2.30;;;23.00;26.80;;;;;;6205054;28;82803;-65
2021/04/10 02:33:41;;;;;;;4.15;2.47;;;22.90;26.90;;;;;;6217389;28;83059;-65
2021/04/10 02:36:43;;;;;;;3.92;2.35;;;22.90;27.50;;;;;;6212760;28;83116;-64
2021/04/10 02:39:44;;;;;;;5.18;2.38;;;23.00;27.10;;;;;;6216961;28;82152;-65
2021/04/10 02:42:45;;;;;;;3.50;2.10;;;22.90;26.90;;;;;;6195947;28;83403;-67
2021/04/10 02:45:48;;;;;;;5.03;2.60;;;23.00;27.90;;;;;;6200075;28;82835;-66
2021/04/10 02:48:48;;;;;;;2.88;2.22;;;23.00;27.50;;;;;;6192532;28;82886;-65
2021/04/10 02:51:49;;;;;;;5.30;2.30;;;23.00;27.20;;;;;;6216729;27;83123;-65
2021/04/10 02:54:54;;;;;;;4.75;2.50;;;23.00;27.30;;;;;;6201554;28;81700;-65
2021/04/10 02:57:55;;;;;;;3.08;2.40;;;23.00;27.30;;;;;;6193527;28;81907;-65
2021/04/10 03:00:55;;;;;;;4.05;2.63;;;22.90;27.30;;;;;;6201422;28;80821;-65
2021/04/10 03:03:58;;;;;;;3.38;2.25;;;22.90;27.50;;;;;;6220016;28;82151;-65
2021/04/10 03:06:59;;;;;;;4.97;3.15;;;23.00;27.50;;;;;;6212646;28;80531;-65
2021/04/10 03:10:00;;;;;;;4.43;2.88;;;23.00;27.30;;;;;;6221915;28;81513;-65
2021/04/10 03:13:02;;;;;;;3.63;2.88;;;22.90;27.70;;;;;;6209856;28;82129;-65
2021/04/10 03:16:05;;;;;;;6.28;3.00;;;23.00;27.70;;;;;;6213422;27;80829;-65
2021/04/10 03:19:06;;;;;;;4.57;3.10;;;23.00;27.40;;;;;;6199162;28;83550;-64
2021/04/10 03:22:10;;;;;;;5.47;2.58;;;23.00;27.80;;;;;;6199690;28;83046;-65
2021/04/10 03:25:11;;;;;;;6.85;3.05;;;22.90;27.50;;;;;;6198166;28;80732;-64
2021/04/10 03:28:12;;;;;;;4.28;2.70;;;23.00;27.50;;;;;;6219058;28;80591;-64
2021/04/10 03:31:15;;;;;;;5.57;3.25;;;22.90;27.50;;;;;;6192861;28;83353;-64
2021/04/10 03:34:16;;;;;;;8.35;3.63;;;22.90;27.50;;;;;;6199961;28;82038;-65
2021/04/10 03:37:16;;;;;;;6.55;3.53;;;22.90;27.10;;;;;;6223340;28;80962;-65
2021/04/10 03:40:19;;;;;;;8.00;3.92;;;22.90;27.50;;;;;;6199938;28;82507;-66
2021/04/10 03:43:23;;;;;;;5.82;3.72;;;22.90;27.40;;;;;;6214413;28;83342;-65
2021/04/10 03:46:27;;;;;;;5.28;3.88;;;22.90;27.20;;;;;;6191456;28;83243;-64
2021/04/10 03:49:27;;;;;;;6.70;3.42;;;22.90;27.70;;;;;;6199947;27;80576;-64
2021/04/10 03:52:29;;;;;;;7.20;3.90;;;22.90;27.30;;;;;;6217394;27;80745;-65
2021/04/10 03:55:30;;;;;;;8.70;4.28;;;22.90;26.90;;;;;;6216440;28;83215;-66
2021/04/10 03:58:31;;;;;;;5.47;3.70;;;23.00;26.90;;;;;;6224776;27;80592;-66
2021/04/10 04:01:32;;;;;;;9.70;4.13;;;23.00;26.70;;;;;;6219743;28;83664;-66
2021/04/10 04:04:33;;;;;;;5.93;4.22;;;23.00;26.80;;;;;;6205057;27;81901;-66
2021/04/10 04:07:33;;;;;;;6.38;3.75;;;23.00;26.80;;;;;;6199907;28;81047;-66
2021/04/10 04:10:34;;;;;;;6.85;4.07;;;23.00;26.70;;;;;;6203587;27;80746;-66
2021/04/10 04:13:34;;;;;;;9.55;4.20;;;23.00;26.80;;;;;;6207140;28;81400;-65
2021/04/10 04:16:35;;;;;;;8.45;4.80;;;23.00;26.80;;;;;;6201953;28;80580;-66
2021/04/10 04:19:35;;;;;;;6.22;4.03;;;23.00;26.70;;;;;;6192413;28;83157;-67
2021/04/10 04:22:36;;;;;;;6.25;4.20;;;23.00;26.80;;;;;;6192518;28;81902;-67
2021/04/10 04:25:36;;;;;;;6.90;4.05;;;23.00;26.80;;;;;;6200548;28;82441;-67
2021/04/10 04:28:37;;;;;;;5.50;3.72;;;23.00;26.80;;;;;;6201605;27;81424;-66
2021/04/10 04:31:37;;;;;;;9.60;3.65;;;23.00;27.10;;;;;;6221544;28;80926;-68
2021/04/10 04:34:38;;;;;;;6.45;3.75;;;23.00;27.00;;;;;;6199708;28;81594;-66
2021/04/10 04:37:40;;;;;;;8.32;4.07;;;23.00;27.10;;;;;;6216547;27;80951;-66
2021/04/10 04:40:41;;;;;;;6.88;3.83;;;23.00;27.40;;;;;;6196549;27;81241;-66
2021/04/10 04:43:41;;;;;;;9.98;3.92;;;23.10;27.40;;;;;;6207524;28;86061;-67
2021/04/10 04:46:42;;;;;;;7.07;3.22;;;23.10;27.40;;;;;;6230255;28;81377;-65
2021/04/10 04:49:42;;;;;;;7.72;3.67;;;23.10;28.20;;;;;;6202035;27;81637;-67
2021/04/10 04:52:43;;;;;;;9.82;3.35;;;23.10;27.60;;;;;;6220274;28;80809;-67
2021/04/10 04:55:43;;;;;;;7.07;4.00;;;23.10;27.70;;;;;;6200387;27;80956;-67
2021/04/10 04:58:44;;;;;;;7.88;3.42;;;23.20;29.20;;;;;;6200503;28;80886;-66
2021/04/10 05:01:44;;;;;;;7.13;3.53;;;23.20;30.00;;;;;;6214152;28;81450;-67
2021/04/10 05:04:45;;;;;;;8.23;3.78;;;23.20;28.50;;;;;;6219721;27;80711;-67
2021/04/10 05:07:46;;;;;;;7.70;3.28;;;23.30;28.70;;;;;;6192590;27;81901;-67
2021/04/10 05:10:46;;;;;;;8.88;4.18;;;23.20;28.90;;;;;;6197848;28;80472;-66
2021/04/10 05:13:47;;;;;;;6.10;3.22;;;23.20;29.20;;;;;;6220246;28;81276;-67
2021/04/10 05:16:47;;;;;;;9.30;3.85;;;23.30;29.70;;;;;;6185535;28;81608;-66
2021/04/10 05:19:48;;;;;;;5.72;3.28;;;23.30;30.00;;;;;;6204923;28;80568;-68
2021/04/10 05:22:48;;;;;;;7.00;3.70;;;23.30;30.20;;;;;;6197003;28;81492;-67
2021/04/10 05:25:49;;;;;;;8.73;4.03;;;23.40;30.60;;;;;;6221341;27;81448;-68
2021/04/10 05:28:49;;;;;;;10.30;3.67;;;23.40;30.80;;;;;;6196330;28;80354;-64
2021/04/10 05:31:50;;;;;;;8.73;3.75;;;23.40;31.10;;;;;;6198411;28;80982;-67
2021/04/10 05:34:50;;;;;;;10.32;4.05;;;23.40;31.20;;;;;;6198273;28;80712;-67
2021/04/10 05:37:51;;;;;;;8.98;4.10;;;23.40;31.00;;;;;;6192727;28;80341;-68
2021/04/10 05:40:51;;;;;;;7.03;3.83;;;23.40;30.90;;;;;;6198696;27;83491;-65
2021/04/10 05:43:52;;;;;;;9.68;3.90;;;23.40;30.90;;;;;;6213981;28;80685;-67
2021/04/10 05:46:52;;;;;;;13.27;3.97;;;23.50;31.00;;;;;;6199497;28;80582;-67
2021/04/10 05:49:53;;;;;;;6.35;3.72;;;23.50;30.90;;;;;;6197293;27;81470;-67
2021/04/10 05:52:54;;;;;;;5.90;2.85;;;23.50;30.90;;;;;;6204818;28;81693;-66
2021/04/10 05:55:54;;;;;;;9.07;3.80;;;23.50;30.60;;;;;;6202221;28;81426;-68
2021/04/10 05:58:55;;;;;;;10.38;3.78;;;23.50;30.60;;;;;;6196340;28;80386;-68
2021/04/10 06:01:55;;;;;;;8.90;3.97;;;23.50;30.30;;;;;;6195453;27;80754;-71
2021/04/10 06:04:56;;;;;;;10.40;4.43;;;23.50;30.00;;;;;;6197710;28;81209;-68
2021/04/10 06:07:56;;;;;;;7.13;4.22;;;23.50;29.90;;;;;;6198585;28;84041;-68
2021/04/10 06:10:57;;;;;;;11.85;4.82;;;23.50;29.70;;;;;;6202853;27;81182;-68
2021/04/10 06:13:57;;;;;;;7.25;4.30;;;23.50;29.50;;;;;;6220736;28;80511;-68
2021/04/10 06:16:58;;;;;;;8.30;4.22;;;23.50;29.40;;;;;;6221041;27;80635;-69
2021/04/10 06:19:58;;;;;;;7.63;4.18;;;23.50;29.20;;;;;;6220459;28;81330;-68
2021/04/10 06:22:59;;;;;;;7.45;3.75;;;23.50;29.10;;;;;;6196636;28;81123;-67
2021/04/10 06:26:00;;;;;;;7.72;3.92;;;23.50;29.20;;;;;;6192565;28;81677;-68
2021/04/10 06:29:00;;;;;;;6.97;3.78;;;23.50;29.20;;;;;;6192574;28;81097;-68
2021/04/10 06:32:01;;;;;;;6.18;3.83;;;23.50;29.00;;;;;;6196258;28;81540;-69
2021/04/10 06:35:01;;;;;;;5.72;3.22;;;23.50;28.90;;;;;;6215274;28;81019;-69
2021/04/10 06:38:02;;;;;;;6.13;3.17;;;23.50;28.60;;;;;;6201290;28;80940;-69
2021/04/10 06:41:02;;;;;;;9.32;3.22;;;23.50;28.50;;;;;;6199717;27;80683;-68
2021/04/10 06:44:03;;;;;;;9.20;3.50;;;23.50;28.80;;;;;;6216638;27;83172;-70
2021/04/10 06:47:03;;;;;;;5.45;3.30;;;23.50;29.30;;;;;;6220054;28;80959;-69
2021/04/10 06:50:05;;;;;;;5.82;3.75;;;23.50;29.40;;;;;;6210372;27;80701;-69
2021/04/10 06:53:05;;;;;;;5.63;2.90;;;23.50;30.00;;;;;;6222942;28;86074;-68
2021/04/10 06:56:08;;;;;;;9.32;3.33;;;23.50;29.40;;;;;;6202660;28;82099;-69
2021/04/10 06:59:09;;;;;;;4.20;2.92;;;23.50;29.70;;;;;;6185611;28;81199;-67
2021/04/10 07:02:11;;;;;;;7.38;3.40;;;23.50;30.50;;;;;;6203013;28;81289;-68
2021/04/10 07:05:11;;;;;;;4.65;2.80;;;23.60;30.70;;;;;;6198391;27;81027;-70
2021/04/10 07:08:12;;;;;;;5.72;2.92;;;23.60;31.10;;;;;;6221309;28;83113;-69
2021/04/10 07:11:13;;;;;;;6.75;2.78;;;23.60;30.50;;;;;;6200879;28;80984;-67
2021/04/10 07:14:13;;;;;;;6.28;3.35;;;23.60;30.90;;;;;;6201197;28;80766;-69
2021/04/10 07:17:14;;;;;;;4.53;2.70;;;23.60;30.00;;;;;;6189614;28;81759;-70
2021/04/10 07:20:14;;;;;;;6.95;3.33;;;23.60;29.80;;;;;;6211972;28;80791;-69
2021/04/10 07:23:15;;;;;;;6.47;3.33;;;23.60;29.90;;;;;;6224818;27;80921;-68
2021/04/10 07:26:16;;;;;;;5.20;3.00;;;23.60;29.90;;;;;;6184085;28;83378;-69
2021/04/10 07:29:16;;;;;;;5.50;2.95;;;23.60;29.30;;;;;;6210574;28;80360;-68
2021/04/10 07:32:17;;;;;;;7.35;2.92;;;23.60;29.30;;;;;;6219930;28;80946;-67
2021/04/10 07:35:17;;;;;;;3.22;2.35;;;23.60;29.50;;;;;;6211656;27;81697;-67
2021/04/10 07:38:18;;;;;;;4.65;3.05;;;23.60;29.30;;;;;;6221663;27;80718;-66
2021/04/10 07:41:19;;;;;;;4.50;2.65;;;23.60;29.10;;;;;;6191847;28;80385;-66
2021/04/10 07:44:19;;;;;;;7.70;2.90;;;23.60;30.00;;;;;;6193113;28;80630;-66
2021/04/10 07:47:20;;;;;;;6.90;2.88;;;23.60;28.90;;;;;;6198845;27;85159;-67
2021/04/10 07:50:20;;;;;;;4.13;2.25;;;23.60;28.60;;;;;;6185900;28;80718;-68
2021/04/10 07:53:21;;;;;;;6.28;3.08;;;23.60;28.80;;;;;;6195062;28;81748;-68
2021/04/10 07:56:21;;;;;;;4.78;2.63;;;23.60;28.70;;;;;;6211195;27;81266;-68
2021/04/10 07:59:22;;;;;;;4.32;2.50;;;23.60;28.50;;;;;;6222892;28;80776;-70
2021/04/10 08:02:22;;;;;;;4.55;2.85;;;23.60;28.40;;;;;;6188938;27;81248;-68
2021/04/10 08:05:23;;;;;;;4.93;2.45;;;23.60;28.10;;;;;;6216987;27;81947;-67
2021/04/10 08:08:24;;;;;;;5.05;3.25;;;23.60;27.90;;;;;;6210584;27;81781;-68
2021/04/10 08:11:24;;;;;;;6.63;3.17;;;23.60;27.60;;;;;;6222651;27;80978;-68
2021/04/10 08:14:25;;;;;;;4.88;2.53;;;23.60;27.50;;;;;;6199340;28;81184;-68
2021/04/10 08:17:26;;;;;;;4.35;3.05;;;23.70;27.50;;;;;;6197051;27;80623;-67
2021/04/10 08:20:27;;;;;;;4.95;3.17;;;23.70;27.70;;;;;;6196087;27;83555;-67
2021/04/10 08:23:27;;;;;;;5.32;2.63;;;23.60;27.30;;;;;;6201642;28;83273;-67
2021/04/10 08:26:28;;;;;;;8.27;2.85;;;23.60;27.20;;;;;;6218065;28;82790;-66
2021/04/10 08:29:28;;;;;;;7.63;2.95;;;23.60;27.30;;;;;;6224138;28;81745;-66
2021/04/10 08:32:29;;;;;;;5.75;3.15;;;23.70;27.10;;;;;;6221322;27;83399;-68
2021/04/10 08:35:29;;;;;;;5.88;2.50;;;23.60;27.10;;;;;;6198281;28;80704;-67
2021/04/10 08:38:30;;;;;;;5.38;3.05;;;23.60;27.40;;;;;;6218355;28;81230;-67
2021/04/10 08:41:31;;;;;;;4.18;2.50;;;23.60;27.40;;;;;;6223234;28;81586;-66
2021/04/10 08:44:31;;;;;;;6.85;3.00;;;23.60;27.10;;;;;;6214561;27;80527;-68
2021/04/10 08:47:32;;;;;;;5.47;3.20;;;23.70;27.30;;;;;;6217611;28;80616;-67
2021/04/10 08:50:33;;;;;;;10.88;3.60;;;23.70;27.40;;;;;;6198529;27;80955;-67
2021/04/10 08:53:33;;;;;;;5.50;2.97;;;23.70;27.70;;;;;;6199835;28;80332;-67
2021/04/10 08:56:34;;;;;;;5.85;2.70;;;23.70;27.70;;;;;;6200394;28;83629;-68
2021/04/10 08:59:34;;;;;;;4.28;2.55;;;23.60;28.30;;;;;;6192118;27;80720;-66
2021/04/10 09:02:35;;;;;;;5.30;2.92;;;23.70;27.80;;;;;;6209617;28;81482;-66
2021/04/10 09:05:35;;;;;;;6.25;2.70;;;23.60;28.50;;;;;;6198516;28;80906;-65
2021/04/10 09:08:36;;;;;;;11.77;2.92;;;23.70;28.70;;;;;;6197889;28;80677;-67
2021/04/10 09:11:36;;;;;;;7.68;2.90;;;23.70;28.60;;;;;;6208817;28;81019;-67
2021/04/10 09:14:37;;;;;;;7.32;3.42;;;23.70;28.40;;;;;;6192826;28;80859;-67
2021/04/10 09:17:37;;;;;;;9.43;3.08;;;23.80;28.40;;;;;;6189553;28;80946;-67
2021/04/10 09:20:38;;;;;;;9.02;3.40;;;23.70;28.50;;;;;;6197612;27;81236;-67
2021/04/10 09:23:38;;;;;;;15.45;3.38;;;23.70;28.00;;;;;;6189795;28;81269;-67
2021/04/10 09:26:39;;;;;;;14.93;4.78;;;23.70;28.00;;;;;;6200710;28;80667;-67
2021/04/10 09:29:40;;;;;;;20.58;5.85;;;23.70;28.80;;;;;;6204174;28;81282;-66
2021/04/10 09:32:41;;;;;;;9.23;4.97;;;23.80;28.70;;;;;;6210845;28;81672;-66
2021/04/10 09:35:41;;;;;;;8.10;4.20;;;23.50;25.90;;;;;;6212892;28;81121;-66
2021/04/10 09:38:42;;;;;;;7.53;4.03;;;23.40;25.30;;;;;;6194022;27;80813;-66
2021/04/10 09:41:42;;;;;;;6.78;2.95;;;23.30;25.40;;;;;;6195166;28;80934;-66
2021/04/10 09:44:43;;;;;;;8.02;3.20;;;23.30;26.50;;;;;;6217312;27;81722;-66
2021/04/10 09:47:43;;;;;;;5.75;2.40;;;23.30;25.60;;;;;;6203554;28;81405;-65
2021/04/10 09:50:44;;;;;;;6.22;2.90;;;23.30;25.40;;;;;;6202859;28;81105;-66
2021/04/10 09:53:44;;;;;;;4.53;2.88;;;23.30;25.50;;;;;;6199721;28;80669;-67
2021/04/10 09:56:45;;;;;;;9.07;3.25;;;23.30;25.10;;;;;;6201113;28;81974;-66
2021/04/10 09:59:45;;;;;;;5.50;2.42;;;23.20;25.00;;;;;;6206325;28;81180;-65
2021/04/10 10:02:46;;;;;;;5.10;3.03;;;23.20;25.20;;;;;;6222982;27;80700;-66
2021/04/10 10:05:46;;;;;;;7.63;2.90;;;23.20;24.70;;;;;;6205910;27;82708;-65
2021/04/10 10:08:47;;;;;;;11.15;4.00;;;23.20;25.40;;;;;;6227805;28;80616;-66
2021/04/10 10:11:47;;;;;;;23.90;7.07;;;23.30;26.30;;;;;;6216327;28;81500;-66
2021/04/10 10:14:48;;;;;;;12.68;4.97;;;23.40;27.80;;;;;;6210758;28;81398;-67
2021/04/10 10:17:48;;;;;;;37.50;13.65;;;23.40;27.70;;;;;;6198151;28;81871;-67
2021/04/10 10:20:49;;;;;;;38.88;17.83;;;23.50;28.00;;;;;;6197157;28;85553;-66
2021/04/10 10:23:50;;;;;;;75.18;45.00;;;23.50;28.90;;;;;;6203051;28;87405;-66
2021/04/10 10:26:50;;;;;;;68.53;36.35;;;23.60;28.50;;;;;;6227987;28;84391;-66
2021/04/10 10:29:51;;;;;;;70.03;31.33;;;23.60;29.10;;;;;;6209429;28;83707;-67
2021/04/10 10:32:51;;;;;;;66.38;32.95;;;23.60;29.20;;;;;;6199765;28;85529;-67
2021/04/10 10:35:52;;;;;;;64.68;28.08;;;23.70;29.50;;;;;;6197540;27;85030;-68
2021/04/10 10:38:52;;;;;;;81.65;33.33;;;23.70;29.30;;;;;;6206519;27;83129;-68
2021/04/10 10:41:53;;;;;;;72.50;33.08;;;23.80;31.20;;;;;;6216050;28;85927;-67
2021/04/10 10:44:53;;;;;;;48.20;24.80;;;23.80;31.20;;;;;;6216708;28;82860;-66
2021/04/10 10:47:54;;;;;;;44.13;18.40;;;23.80;29.40;;;;;;6198313;28;83639;-67
2021/04/10 10:50:54;;;;;;;24.80;11.65;;;23.80;28.30;;;;;;6196234;28;84053;-68
2021/04/10 10:53:55;;;;;;;14.85;8.15;;;23.80;27.60;;;;;;6194213;27;83354;-66
2021/04/10 10:56:55;;;;;;;17.90;7.53;;;23.80;27.30;;;;;;6199048;28;83465;-66
2021/04/10 10:59:56;;;;;;;7.93;4.30;;;23.80;26.50;;;;;;6202537;27;80456;-65
2021/04/10 11:02:57;;;;;;;8.55;3.65;;;23.80;25.70;;;;;;6208149;27;81477;-65
2021/04/10 11:05:57;;;;;;;30.55;3.53;;;23.70;25.10;;;;;;6217169;27;81096;-66
2021/04/10 11:08:58;;;;;;;9.98;2.70;;;23.50;23.90;;;;;;6221441;28;81873;-64
2021/04/10 11:11:59;;;;;;;11.18;2.22;;;23.40;23.80;;;;;;6206436;27;81716;-65
2021/04/10 11:15:01;;;;;;;12.52;2.15;;;23.40;24.40;;;;;;6187833;28;80944;-65
2021/04/10 11:18:01;;;;;;;4.50;2.42;;;23.50;24.60;;;;;;6196392;28;80389;-66
2021/04/10 11:21:02;;;;;;;5.55;2.22;;;23.60;24.40;;;;;;6195762;28;81691;-64
2021/04/10 11:24:03;;;;;;;3.55;2.33;;;23.60;24.80;;;;;;6190862;28;81409;-65
2021/04/10 11:27:03;;;;;;;5.03;2.38;;;23.60;24.40;;;;;;6200402;28;82766;-64
2021/04/10 11:30:04;;;;;;;5.07;2.40;;;23.50;24.00;;;;;;6203223;28;81282;-66
2021/04/10 11:33:04;;;;;;;2.88;2.03;;;23.30;23.70;;;;;;6200917;28;80843;-65
2021/04/10 11:36:05;;;;;;;4.40;2.55;;;23.20;23.90;;;;;;6199352;28;81230;-64
2021/04/10 11:39:05;;;;;;;11.05;2.17;;;23.20;24.00;;;;;;6207145;28;81402;-64
2021/04/10 11:42:06;;;;;;;2.92;2.20;;;23.00;24.00;;;;;;6216591;27;80818;-66
2021/04/10 11:45:07;;;;;;;4.65;2.05;;;23.00;23.90;;;;;;6203512;28;81820;-66
2021/04/10 11:48:08;;;;;;;6.15;2.42;;;23.20;24.10;;;;;;6200589;28;80797;-65
2021/04/10 11:51:08;;;;;;;4.38;2.22;;;23.20;24.60;;;;;;6202113;28;80599;-65
2021/04/10 11:54:09;;;;;;;4.82;2.78;;;23.20;24.20;;;;;;6207851;27;83602;-65
2021/04/10 11:57:09;;;;;;;8.82;3.13;;;23.20;24.00;;;;;;6184051;27;80829;-65
2021/04/10 12:00:10;;;;;;;3.70;2.03;;;23.20;24.10;;;;;;6200929;27;80466;-66
2021/04/10 12:03:10;;;;;;;5.35;2.50;;;23.30;23.90;;;;;;6200429;27;83151;-65
2021/04/10 12:06:11;;;;;;;4.30;2.33;;;23.30;24.30;;;;;;6204473;28;82006;-64
2021/04/10 12:09:11;;;;;;;5.65;2.50;;;23.50;24.20;;;;;;6220517;28;81930;-65
2021/04/10 12:12:12;;;;;;;2.90;1.90;;;23.60;24.50;;;;;;6208428;28;80856;-65
2021/04/10 12:15:12;;;;;;;3.03;1.77;;;23.60;23.30;;;;;;6229978;27;80567;-65
2021/04/10 12:18:13;;;;;;;4.40;1.88;;;23.50;22.20;;;;;;6200187;27;81195;-64
2021/04/10 12:21:13;;;;;;;6.43;1.90;;;23.60;22.30;;;;;;6200707;28;84551;-63
2021/04/10 12:24:14;;;;;;;3.03;1.83;;;23.70;23.30;;;;;;6208262;28;80951;-68
2021/04/10 12:27:14;;;;;;;5.53;1.77;;;23.80;23.80;;;;;;6204704;27;80325;-65
2021/04/10 12:30:15;;;;;;;6.03;2.13;;;23.90;24.30;;;;;;6207496;27;81545;-65
2021/04/10 12:33:16;;;;;;;4.40;2.00;;;23.90;24.20;;;;;;6206172;28;81161;-65
2021/04/10 12:36:16;;;;;;;2.75;2.00;;;24.00;24.70;;;;;;6225608;27;80860;-64
2021/04/10 12:39:17;;;;;;;9.35;2.33;;;24.00;24.70;;;;;;6224620;27;81211;-63
2021/04/10 12:42:17;;;;;;;4.40;2.20;;;24.00;24.70;;;;;;6228362;27;80981;-64
2021/04/10 12:45:18;;;;;;;3.67;1.83;;;24.00;25.00;;;;;;6205277;28;81863;-64
2021/04/10 12:48:18;;;;;;;3.42;2.00;;;24.00;24.50;;;;;;6194394;28;81271;-64
2021/04/10 12:51:19;;;;;;;3.03;2.03;;;24.00;24.60;;;;;;6203078;27;80549;-64
2021/04/10 12:54:19;;;;;;;4.43;2.00;;;24.00;24.60;;;;;;6213857;27;80724;-64
2021/04/10 12:57:20;;;;;;;7.15;2.30;;;24.00;24.40;;;;;;6205849;28;80444;-66
2021/04/10 13:00:20;;;;;;;8.05;2.42;;;24.00;25.00;;;;;;6197608;28;80540;-66
2021/04/10 13:03:24;;;;;;;3.42;2.20;;;24.00;25.20;;;;;;6209073;27;81119;-66
2021/04/10 13:06:25;;;;;;;5.55;2.30;;;24.00;25.60;;;;;;6230234;27;81729;-67
2021/04/10 13:09:25;;;;;;;4.78;2.40;;;24.00;26.60;;;;;;6227426;27;83775;-66
2021/04/10 13:12:27;;;;;;;4.43;2.42;;;24.00;26.60;;;;;;6213726;28;83578;-68
2021/04/10 13:15:28;;;;;;;3.72;2.42;;;24.00;26.40;;;;;;6204253;28;80665;-66
2021/04/10 13:18:29;;;;;;;2.90;2.08;;;24.10;26.00;;;;;;6208228;28;84428;-69
2021/04/10 13:21:29;;;;;;;6.28;2.22;;;24.10;25.70;;;;;;6206559;28;82443;-67
2021/04/10 13:24:30;;;;;;;6.13;2.55;;;24.00;26.10;;;;;;6197634;28;80869;-67
2021/04/10 13:27:31;;;;;;;3.08;1.77;;;24.00;26.00;;;;;;6195070;28;81131;-67
2021/04/10 13:30:31;;;;;;;6.18;2.20;;;24.10;25.90;;;;;;6191855;28;81466;-67
2021/04/10 13:33:32;;;;;;;5.10;2.17;;;24.10;25.50;;;;;;6196417;28;81106;-68
2021/04/10 13:36:32;;;;;;;7.78;2.03;;;24.10;25.60;;;;;;6206046;27;81442;-66
2021/04/10 13:39:33;;;;;;;7.85;2.00;;;24.00;25.40;;;;;;6215208;28;81751;-71
2021/04/10 13:42:33;;;;;;;4.90;2.20;;;24.10;26.30;;;;;;6237222;27;84479;-69
2021/04/10 13:45:34;;;;;;;7.43;2.47;;;24.10;26.20;;;;;;6215397;27;83004;-69
2021/04/10 13:48:35;;;;;;;4.93;2.28;;;24.10;26.40;;;;;;6217552;27;80565;-69
2021/04/10 13:51:35;;;;;;;3.15;2.10;;;24.10;25.80;;;;;;6204549;27;80895;-68
2021/04/10 13:54:36;;;;;;;3.20;2.10;;;24.10;25.50;;;;;;6207526;28;80398;-67
2021/04/10 13:57:36;;;;;;;5.05;2.40;;;24.10;25.30;;;;;;6203151;28;80904;-69
2021/04/10 14:00:37;;;;;;;6.65;1.83;;;24.10;25.60;;;;;;6217888;27;80454;-68
2021/04/10 14:03:40;;;;;;;2.97;2.22;;;24.10;25.50;;;;;;6212458;28;80783;-69
2021/04/10 14:06:40;;;;;;;4.75;2.03;;;24.10;25.10;;;;;;6206941;28;81016;-69
2021/04/10 14:09:41;;;;;;;5.68;2.50;;;24.10;25.20;;;;;;6203835;28;80763;-68
2021/04/10 14:12:42;;;;;;;2.88;2.05;;;24.10;25.40;;;;;;6205123;27;86968;-68
2021/04/10 14:15:42;;;;;;;3.85;2.20;;;24.10;25.50;;;;;;6199652;28;81656;-68
2021/04/10 14:18:43;;;;;;;4.97;2.20;;;24.10;25.60;;;;;;6209180;28;80934;-68
2021/04/10 14:21:44;;;;;;;4.60;2.25;;;24.10;25.40;;;;;;6209334;27;80748;-68
2021/04/10 14:24:44;;;;;;;7.35;3.05;;;24.10;25.40;;;;;;6202144;28;80990;-68
2021/04/10 14:27:45;;;;;;;6.45;2.50;;;24.00;25.10;;;;;;6212869;28;80887;-68
2021/04/10 14:30:45;;;;;;;2.75;2.15;;;24.00;25.70;;;;;;6210491;28;80563;-68
2021/04/10 14:33:46;;;;;;;3.40;2.03;;;24.10;25.00;;;;;;6210684;27;81068;-68
2021/04/10 14:36:46;;;;;;;3.00;2.10;;;24.00;25.10;;;;;;6208778;27;81378;-68
2021/04/10 14:39:48;;;;;;;5.97;2.30;;;24.00;24.90;;;;;;6200152;27;85491;-68
2021/04/10 14:42:49;;;;;;;6.32;2.50;;;24.00;25.00;;;;;;6211732;27;81178;-68
2021/04/10 14:45:49;;;;;;;3.83;2.20;;;24.00;25.00;;;;;;6207358;28;81288;-68
2021/04/10 14:48:50;;;;;;;5.13;2.58;;;24.00;25.10;;;;;;6202320;27;80600;-68
2021/04/10 14:51:50;;;;;;;5.72;2.50;;;24.00;24.90;;;;;;6206369;28;80837;-68
2021/04/10 14:54:51;;;;;;;5.97;2.78;;;24.00;25.50;;;;;;6212105;28;81591;-68
2021/04/10 14:57:51;;;;;;;3.80;2.03;;;24.00;25.40;;;;;;6214883;27;82975;-68
2021/04/10 15:00:52;;;;;;;4.90;2.28;;;24.00;25.10;;;;;;6203967;27;81574;-70
2021/04/10 15:03:53;;;;;;;4.30;2.55;;;24.00;25.40;;;;;;6196629;28;80832;-68
2021/04/10 15:06:53;;;;;;;7.20;2.95;;;24.00;25.20;;;;;;6196674;28;80902;-68
2021/04/10 15:09:54;;;;;;;6.68;2.50;;;24.00;25.40;;;;;;6196216;28;83209;-68
2021/04/10 15:12:54;;;;;;;5.75;3.15;;;24.00;25.10;;;;;;6197824;28;81664;-68
2021/04/10 15:15:55;;;;;;;4.93;2.65;;;24.00;25.60;;;;;;6194849;28;81055;-68
2021/04/10 15:18:55;;;;;;;9.75;3.20;;;24.00;25.20;;;;;;6202467;28;83158;-67
2021/04/10 15:21:56;;;;;;;5.22;3.10;;;24.00;25.00;;;;;;6223164;27;83057;-67
2021/04/10 15:24:56;;;;;;;5.65;2.70;;;24.00;25.20;;;;;;6220781;28;80298;-68
2021/04/10 15:27:57;;;;;;;6.07;3.10;;;24.00;25.20;;;;;;6213074;28;81178;-68
2021/04/10 15:31:03;;;;;;;3.67;2.35;;;24.00;24.90;;;;;;6202381;28;80641;-68
2021/04/10 15:34:04;;;;;;;8.57;3.25;;;23.90;25.30;;;;;;6199986;27;81659;-68
2021/04/10 15:37:04;;;;;;;7.07;3.72;;;24.00;25.70;;;;;;6188318;28;80813;-68
2021/04/10 15:40:05;;;;;;;7.38;2.80;;;23.90;25.00;;;;;;6208152;28;83668;-68